Time;durP1;ratioP1;P1;durP2;ratioP2;P2;SDS_P1;SDS_P2;PMS_P1;PMS_P2;Temp;Humidity;BMP_temperature;BMP_pressure;BME280_temperature;BME280_humidity;BME280_pressure;Samples;Min_cycle;Max_cycle;Signal;HPM_P1;HPM_P2
2021/12/27 00:02:17;;;;;;;;;;;;;;;-12.35;69.16;98844.94;5015949;28;19913;-76
2021/12/27 00:04:44;;;;;;;;;;;;;;;-12.24;68.83;98858.19;5017054;28;19975;-77
2021/12/27 00:07:10;;;;;;;;;;;;;;;-12.38;70.19;98867.19;5016988;28;19913;-78
2021/12/27 00:09:36;;;;;;;;;;;;;;;-12.32;69.79;98866.03;4983068;28;19987;-77
2021/12/27 00:12:02;;;;;;;;;;;;;;;-12.57;69.27;98870.00;5015421;28;19917;-77
2021/12/27 00:14:27;;;;;;;;;;;;;;;-12.61;70.35;98875.53;4998851;28;19917;-77
2021/12/27 00:16:53;;;;;;;;;;;;;;;-12.42;69.09;98863.59;5015388;28;19914;-78
2021/12/27 00:19:18;;;;;;;;;;;;;;;-12.44;68.88;98870.13;4999141;28;19921;-79
2021/12/27 00:21:44;;;;;;;;;;;;;;;-12.65;69.71;98869.41;5015229;28;19914;-76
2021/12/27 00:24:09;;;;;;;;;;;;;;;-12.65;70.10;98873.56;5015094;28;19925;-77
2021/12/27 00:26:35;;;;;;;;;;;;;;;-12.63;69.36;98872.91;5015335;28;20269;-78
2021/12/27 00:29:00;;;;;;;;;;;;;;;-12.76;70.62;98869.41;5016185;28;19921;-77
2021/12/27 00:31:26;;;;;;;;;;;;;;;-12.81;70.71;98877.44;5015276;28;19917;-78
2021/12/27 00:33:51;;;;;;;;;;;;;;;-12.88;71.11;98874.34;5015267;28;19924;-77
2021/12/27 00:36:17;;;;;;;;;;;;;;;-13.01;71.25;98882.59;5015267;28;19920;-76
2021/12/27 00:38:42;;;;;;;;;;;;;;;-13.06;71.33;98886.34;5014934;28;19917;-77
2021/12/27 00:41:08;;;;;;;;;;;;;;;-13.14;71.51;98885.78;4998682;28;19914;-77
2021/12/27 00:43:33;;;;;;;;;;;;;;;-13.05;71.31;98893.09;5014990;28;19917;-78
2021/12/27 00:46:00;;;;;;;;;;;;;;;-12.94;71.56;98893.88;5016495;28;20305;-78
2021/12/27 00:48:26;;;;;;;;;;;;;;;-12.87;70.47;98901.94;5014963;28;20027;-77
2021/12/27 00:50:51;;;;;;;;;;;;;;;-13.04;70.78;98903.94;5016418;28;19917;-78
2021/12/27 00:53:17;;;;;;;;;;;;;;;-13.14;71.21;98893.25;5014838;28;19921;-78
2021/12/27 00:55:42;;;;;;;;;;;;;;;-12.97;70.94;98903.63;4998184;28;19913;-77
2021/12/27 00:58:08;;;;;;;;;;;;;;;-13.05;71.17;98902.22;5014559;28;20276;-78
2021/12/27 01:00:34;;;;;;;;;;;;;;;-12.95;71.01;98903.00;4998459;28;19958;-77
2021/12/27 01:03:00;;;;;;;;;;;;;;;-12.80;70.66;98903.25;4998243;28;19917;-77
2021/12/27 01:05:25;;;;;;;;;;;;;;;-12.51;71.05;98897.91;4998696;28;20015;-77
2021/12/27 01:07:51;;;;;;;;;;;;;;;-12.48;68.80;98903.13;5014150;28;19917;-77
2021/12/27 01:11:11;;;;;;;;;;;;;;;-12.66;69.06;98906.78;4997531;28;19917;-78
2021/12/27 01:13:22;;;;;;;;;;;;;;;-12.39;69.57;98906.31;5001744;28;20372;-77
2021/12/27 01:15:51;;;;;;;;;;;;;;;-12.47;70.00;98919.88;4997730;28;19971;-77
2021/12/27 01:18:17;;;;;;;;;;;;;;;-12.47;69.63;98909.88;5013980;28;19921;-79
2021/12/27 01:20:43;;;;;;;;;;;;;;;-12.61;69.45;98916.34;5014328;28;19917;-77
2021/12/27 01:23:08;;;;;;;;;;;;;;;-12.72;69.67;98917.19;4997649;28;19917;-77
2021/12/27 01:25:34;;;;;;;;;;;;;;;-12.78;69.16;98921.75;5015041;28;19924;-80
2021/12/27 01:27:59;;;;;;;;;;;;;;;-12.88;69.42;98926.78;4997424;28;20307;-77
2021/12/27 01:30:25;;;;;;;;;;;;;;;-12.57;70.16;98928.31;5013785;28;19921;-78
2021/12/27 01:32:54;;;;;;;;;;;;;;;-12.58;69.56;98930.72;4997586;28;19913;-77
2021/12/27 01:35:20;;;;;;;;;;;;;;;-12.88;69.26;98935.16;4997095;28;19917;-78
2021/12/27 01:37:46;;;;;;;;;;;;;;;-13.00;69.58;98928.38;4997459;28;19918;-77
2021/12/27 01:40:12;;;;;;;;;;;;;;;-12.93;69.59;98931.44;4997383;28;19921;-78
2021/12/27 01:42:37;;;;;;;;;;;;;;;-13.16;69.79;98946.28;5013921;28;19967;-76
2021/12/27 01:45:03;;;;;;;;;;;;;;;-13.13;70.09;98949.03;5013731;28;19952;-77
2021/12/27 01:47:30;;;;;;;;;;;;;;;-13.17;70.22;98942.94;5014920;28;19913;-77
2021/12/27 01:49:55;;;;;;;;;;;;;;;-13.08;70.11;98938.66;5013348;28;19975;-78
2021/12/27 01:52:21;;;;;;;;;;;;;;;-13.10;69.39;98942.66;4997430;28;20451;-78
2021/12/27 01:54:46;;;;;;;;;;;;;;;-13.02;69.23;98943.22;5014716;28;20380;-76
2021/12/27 01:57:12;;;;;;;;;;;;;;;-12.92;69.82;98938.19;5013673;28;19921;-76
2021/12/27 01:59:37;;;;;;;;;;;;;;;-12.93;69.41;98941.41;5013499;28;19917;-76
2021/12/27 02:02:03;;;;;;;;;;;;;;;-13.13;69.80;98949.91;5013449;28;20012;-77
2021/12/27 02:04:28;;;;;;;;;;;;;;;-13.03;69.52;98955.59;5014692;28;19917;-78
2021/12/27 02:06:54;;;;;;;;;;;;;;;-13.34;69.69;98951.66;4996833;28;19913;-79
2021/12/27 02:09:26;;;;;;;;;;;;;;;-13.32;70.20;98959.28;5013213;28;19921;-79
2021/12/27 02:11:52;;;;;;;;;;;;;;;-13.21;70.40;98962.53;5014394;28;20380;-77
2021/12/27 02:14:17;;;;;;;;;;;;;;;-13.27;70.65;98954.63;5014366;28;19963;-77
2021/12/27 02:16:43;;;;;;;;;;;;;;;-13.42;70.04;98961.78;5014267;28;19917;-77
2021/12/27 02:19:08;;;;;;;;;;;;;;;-13.46;70.69;98963.19;5014142;28;19913;-77
2021/12/27 02:21:34;;;;;;;;;;;;;;;-13.31;70.74;98966.00;4996690;28;20020;-76
2021/12/27 02:24:01;;;;;;;;;;;;;;;-13.36;70.84;98972.25;5014112;28;19917;-78
2021/12/27 02:26:26;;;;;;;;;;;;;;;-13.34;70.15;98970.75;5012798;28;19921;-77
2021/12/27 02:28:52;;;;;;;;;;;;;;;-13.12;70.98;98969.09;5012902;28;19940;-78
2021/12/27 02:31:17;;;;;;;;;;;;;;;-13.01;69.63;98972.44;4996552;28;20380;-76
2021/12/27 02:33:43;;;;;;;;;;;;;;;-13.18;69.54;98975.28;5013078;28;20373;-78
2021/12/27 02:36:09;;;;;;;;;;;;;;;-13.19;69.40;98976.91;5013034;28;19956;-77
2021/12/27 02:38:36;;;;;;;;;;;;;;;-13.37;69.41;98986.38;5012584;28;19914;-78
2021/12/27 02:41:02;;;;;;;;;;;;;;;-13.51;70.34;98979.44;5013045;28;19920;-77
2021/12/27 02:43:28;;;;;;;;;;;;;;;-13.43;70.31;98988.34;5012607;28;19917;-77
2021/12/27 02:45:55;;;;;;;;;;;;;;;-13.23;69.92;98984.94;5012520;28;19917;-77
2021/12/27 02:48:23;;;;;;;;;;;;;;;-13.23;70.13;98984.06;5013828;28;20376;-78
2021/12/27 02:50:48;;;;;;;;;;;;;;;-13.42;69.92;98996.72;5013791;28;19925;-78
2021/12/27 02:53:14;;;;;;;;;;;;;;;-13.32;70.13;98998.31;5012563;28;19967;-78
2021/12/27 02:55:40;;;;;;;;;;;;;;;-13.16;69.62;99003.69;5013551;28;19917;-75
2021/12/27 02:58:05;;;;;;;;;;;;;;;-13.24;70.01;99008.13;5012356;28;19913;-77
2021/12/27 03:00:32;;;;;;;;;;;;;;;-13.43;69.69;99013.31;5013393;28;20011;-78
2021/12/27 03:02:57;;;;;;;;;;;;;;;-13.27;69.95;99027.00;5012461;28;20000;-76
2021/12/27 03:05:24;;;;;;;;;;;;;;;-13.25;69.48;99025.47;5012345;28;20461;-78
2021/12/27 03:07:49;;;;;;;;;;;;;;;-13.19;69.77;99035.91;5013527;28;19921;-77
2021/12/27 03:10:17;;;;;;;;;;;;;;;-13.50;69.91;99043.53;5012140;28;19925;-77
2021/12/27 03:12:44;;;;;;;;;;;;;;;-13.56;70.33;99040.53;5013604;28;19913;-78
2021/12/27 03:15:10;;;;;;;;;;;;;;;-13.43;70.62;99044.88;4995545;28;20417;-76
2021/12/27 03:17:36;;;;;;;;;;;;;;;-13.44;70.42;99048.97;4996129;28;20020;-77
2021/12/27 03:20:04;;;;;;;;;;;;;;;-13.39;70.57;99040.25;5013183;28;19933;-77
2021/12/27 03:22:30;;;;;;;;;;;;;;;-13.27;70.07;99039.47;4995379;28;19928;-77
2021/12/27 03:24:55;;;;;;;;;;;;;;;-13.23;69.87;99038.97;5013152;28;19921;-78
2021/12/27 03:27:21;;;;;;;;;;;;;;;-13.47;69.84;99043.75;5013205;28;20004;-77
2021/12/27 03:29:46;;;;;;;;;;;;;;;-13.60;70.23;99054.41;4995211;28;19972;-78
2021/12/27 03:32:13;;;;;;;;;;;;;;;-13.42;70.35;99049.09;4995655;28;19913;-78
2021/12/27 03:34:42;;;;;;;;;;;;;;;-13.49;70.28;99060.22;5011447;28;20024;-77
2021/12/27 03:37:08;;;;;;;;;;;;;;;-13.59;70.30;99058.63;5013157;28;19917;-78
2021/12/27 03:39:34;;;;;;;;;;;;;;;-13.68;70.68;99057.88;5011499;28;19921;-76
2021/12/27 03:41:59;;;;;;;;;;;;;;;-13.80;71.29;99066.88;4995309;28;19967;-77
2021/12/27 03:44:25;;;;;;;;;;;;;;;-13.69;71.79;99058.66;4995546;28;19917;-77
2021/12/27 03:46:50;;;;;;;;;;;;;;;-13.41;71.19;99071.69;5010729;28;19913;-77
2021/12/27 03:49:16;;;;;;;;;;;;;;;-13.21;70.60;99069.84;5012610;28;19925;-77
2021/12/27 03:51:43;;;;;;;;;;;;;;;-13.25;69.96;99070.41;5012005;28;19944;-78
2021/12/27 03:54:09;;;;;;;;;;;;;;;-13.32;69.44;99073.19;5011708;28;19917;-78
2021/12/27 03:56:35;;;;;;;;;;;;;;;-13.47;69.88;99083.66;5011800;28;19920;-77
2021/12/27 03:59:20;;;;;;;;;;;;;;;-13.50;69.89;99083.44;4995624;28;20402;-78
2021/12/27 04:01:45;;;;;;;;;;;;;;;-13.31;69.71;99080.78;5013082;28;19944;-79
2021/12/27 04:04:11;;;;;;;;;;;;;;;-13.47;69.92;99088.66;5012884;28;19913;-77
2021/12/27 04:06:36;;;;;;;;;;;;;;;-13.26;69.61;99083.63;5013224;28;19924;-78
2021/12/27 04:09:02;;;;;;;;;;;;;;;-13.16;69.74;99088.56;4995535;28;19952;-78
2021/12/27 04:11:28;;;;;;;;;;;;;;;-13.67;69.63;99103.66;5013088;28;19924;-77
2021/12/27 04:13:55;;;;;;;;;;;;;;;-13.70;70.78;99093.41;5013024;28;20004;-78
2021/12/27 04:16:21;;;;;;;;;;;;;;;-13.53;71.10;99103.13;5013001;28;20380;-79
2021/12/27 04:18:46;;;;;;;;;;;;;;;-13.64;70.50;99103.91;5012965;28;19920;-77
2021/12/27 04:21:12;;;;;;;;;;;;;;;-13.69;70.82;99110.16;5013175;28;20412;-80
2021/12/27 04:23:37;;;;;;;;;;;;;;;-13.82;71.23;99112.38;5012920;28;19917;-81
2021/12/27 04:26:03;;;;;;;;;;;;;;;-13.90;71.72;99125.09;5011272;28;19921;-76
2021/12/27 04:28:28;;;;;;;;;;;;;;;-13.89;72.20;99116.84;4995239;28;20004;-77
2021/12/27 04:30:54;;;;;;;;;;;;;;;-13.75;72.51;99125.47;5011607;28;19921;-77
2021/12/27 04:33:19;;;;;;;;;;;;;;;-13.58;71.69;99124.34;4995394;28;20277;-76
2021/12/27 04:35:45;;;;;;;;;;;;;;;-13.54;71.51;99120.47;5011750;28;20384;-77
2021/12/27 04:38:10;;;;;;;;;;;;;;;-13.57;71.28;99123.59;5012653;28;19913;-76
2021/12/27 04:40:37;;;;;;;;;;;;;;;-13.82;71.28;99122.34;5012833;28;19932;-76
2021/12/27 04:43:07;;;;;;;;;;;;;;;-13.84;71.84;99128.06;5011313;28;19924;-77
2021/12/27 04:45:33;;;;;;;;;;;;;;;-13.75;71.66;99139.53;4995168;28;20439;-76
2021/12/27 04:47:58;;;;;;;;;;;;;;;-13.99;71.71;99154.25;5016282;28;19960;-77
2021/12/27 04:50:25;;;;;;;;;;;;;;;-14.15;72.29;99156.22;5014802;28;19921;-77
2021/12/27 04:52:53;;;;;;;;;;;;;;;-14.22;73.47;99153.94;5016012;28;19913;-78
2021/12/27 04:55:24;;;;;;;;;;;;;;;-14.22;73.89;99158.94;5016042;28;19924;-77
2021/12/27 04:57:50;;;;;;;;;;;;;;;-14.31;73.54;99165.63;5014928;28;20012;-76
2021/12/27 05:00:16;;;;;;;;;;;;;;;-14.30;74.02;99158.28;5014770;28;20373;-77
2021/12/27 05:02:41;;;;;;;;;;;;;;;-14.28;73.92;99160.91;5014754;28;19967;-78
2021/12/27 05:05:07;;;;;;;;;;;;;;;-14.35;73.78;99169.47;5015039;28;19967;-78
2021/12/27 05:07:33;;;;;;;;;;;;;;;-14.36;74.19;99173.59;5016241;28;19924;-77
2021/12/27 05:09:58;;;;;;;;;;;;;;;-14.35;74.70;99190.28;4997994;28;19956;-78
2021/12/27 05:12:24;;;;;;;;;;;;;;;-14.42;74.69;99183.03;5015798;28;20401;-79
2021/12/27 05:14:49;;;;;;;;;;;;;;;-14.41;74.71;99182.28;5014511;28;19920;-77
2021/12/27 05:17:15;;;;;;;;;;;;;;;-14.45;74.63;99180.28;4998209;28;19925;-77
2021/12/27 05:19:40;;;;;;;;;;;;;;;-14.37;75.24;99186.78;5015849;28;19955;-78
2021/12/27 05:22:06;;;;;;;;;;;;;;;-14.30;74.51;99192.28;5014106;28;20035;-77
2021/12/27 05:24:31;;;;;;;;;;;;;;;-14.30;74.79;99190.66;5015258;28;19913;-77
2021/12/27 05:26:57;;;;;;;;;;;;;;;-14.31;74.61;99196.41;5015236;28;19971;-75
2021/12/27 05:29:22;;;;;;;;;;;;;;;-14.29;74.94;99199.00;4997464;28;20395;-76
2021/12/27 05:31:48;;;;;;;;;;;;;;;-14.29;74.89;99197.41;5014035;28;20019;-78
2021/12/27 05:34:14;;;;;;;;;;;;;;;-14.23;74.96;99195.44;4997687;28;19913;-78
2021/12/27 05:36:43;;;;;;;;;;;;;;;-14.16;75.27;99199.31;5014033;28;19968;-79
2021/12/27 05:39:09;;;;;;;;;;;;;;;-14.20;74.94;99204.75;5014848;28;19921;-77
2021/12/27 05:41:35;;;;;;;;;;;;;;;-14.11;75.01;99200.56;5013565;28;19918;-79
2021/12/27 05:44:00;;;;;;;;;;;;;;;-14.10;74.55;99205.69;5014974;28;20273;-77
2021/12/27 05:46:25;;;;;;;;;;;;;;;-14.13;74.88;99210.41;5015192;28;19928;-76
2021/12/27 05:48:51;;;;;;;;;;;;;;;-14.17;75.47;99207.53;4997340;28;19956;-78
2021/12/27 05:51:16;;;;;;;;;;;;;;;-14.10;75.51;99212.31;5015117;28;19917;-78
2021/12/27 05:53:42;;;;;;;;;;;;;;;-13.97;75.23;99222.56;5013566;28;20430;-78
2021/12/27 05:56:08;;;;;;;;;;;;;;;-13.96;74.55;99226.78;5014483;28;19924;-76
2021/12/27 05:58:33;;;;;;;;;;;;;;;-14.02;74.92;99223.75;5014299;28;19913;-77
2021/12/27 06:00:59;;;;;;;;;;;;;;;-14.02;75.27;99228.75;5013392;28;19917;-77
2021/12/27 06:03:24;;;;;;;;;;;;;;;-13.93;74.88;99233.63;5014332;28;19913;-76
2021/12/27 06:05:50;;;;;;;;;;;;;;;-13.98;74.86;99235.75;5013327;28;19924;-78
2021/12/27 06:08:15;;;;;;;;;;;;;;;-13.90;75.09;99224.78;5013589;28;19917;-77
2021/12/27 06:10:41;;;;;;;;;;;;;;;-13.91;74.96;99237.16;5013193;28;19974;-78
2021/12/27 06:13:06;;;;;;;;;;;;;;;-13.91;74.85;99233.03;5013611;28;19983;-77
2021/12/27 06:15:32;;;;;;;;;;;;;;;-13.97;75.06;99237.50;4997026;28;20079;-77
2021/12/27 06:17:57;;;;;;;;;;;;;;;-14.00;74.84;99251.31;5013250;28;19913;-78
2021/12/27 06:20:23;;;;;;;;;;;;;;;-13.94;75.37;99250.22;5014246;28;19921;-79
2021/12/27 06:22:52;;;;;;;;;;;;;;;-14.02;74.69;99257.78;4996761;28;19919;-77
2021/12/27 06:25:18;;;;;;;;;;;;;;;-14.00;74.58;99259.69;5012950;28;19917;-78
2021/12/27 06:27:43;;;;;;;;;;;;;;;-14.00;74.92;99267.16;5013070;28;19967;-78
2021/12/27 06:30:09;;;;;;;;;;;;;;;-13.99;75.26;99266.41;5012450;28;19925;-77
2021/12/27 06:32:35;;;;;;;;;;;;;;;-13.93;75.55;99273.53;5013108;28;19917;-78
2021/12/27 06:35:00;;;;;;;;;;;;;;;-13.90;75.68;99279.66;5012882;28;19944;-78
2021/12/27 06:37:26;;;;;;;;;;;;;;;-13.86;75.33;99285.78;5012983;28;19921;-77
2021/12/27 06:39:51;;;;;;;;;;;;;;;-13.91;75.41;99284.50;5013738;28;19960;-77
2021/12/27 06:42:17;;;;;;;;;;;;;;;-13.89;75.39;99283.88;4996449;28;20379;-76
2021/12/27 06:44:43;;;;;;;;;;;;;;;-13.86;75.37;99284.16;5013754;28;20016;-77
2021/12/27 06:47:08;;;;;;;;;;;;;;;-13.81;75.77;99273.69;5012475;28;20003;-78
2021/12/27 06:49:36;;;;;;;;;;;;;;;-13.79;75.09;99288.00;5028938;28;20017;-76
2021/12/27 06:52:02;;;;;;;;;;;;;;;-13.72;74.94;99280.31;5012756;28;19968;-79
2021/12/27 06:54:27;;;;;;;;;;;;;;;-13.66;74.77;99284.94;4996249;28;19917;-77
2021/12/27 06:56:54;;;;;;;;;;;;;;;-13.68;74.19;99278.97;5013911;28;19920;-77
2021/12/27 06:59:20;;;;;;;;;;;;;;;-13.74;73.57;99298.38;5012686;28;20376;-78
2021/12/27 07:01:45;;;;;;;;;;;;;;;-13.83;73.41;99303.50;4996820;28;19923;-78
2021/12/27 07:04:11;;;;;;;;;;;;;;;-13.95;73.32;99303.31;5013611;28;19971;-79
2021/12/27 07:06:36;;;;;;;;;;;;;;;-14.02;72.81;99303.53;5012473;28;19956;-79
2021/12/27 07:09:04;;;;;;;;;;;;;;;-14.05;72.97;99298.28;5011607;28;19921;-77
2021/12/27 07:11:29;;;;;;;;;;;;;;;-14.05;72.97;99298.28;5013603;28;19944;-77
2021/12/27 07:13:55;;;;;;;;;;;;;;;-14.07;73.12;99309.72;4996009;28;19917;-77
2021/12/27 07:16:20;;;;;;;;;;;;;;;-14.05;73.22;99303.28;5013721;28;19936;-77
2021/12/27 07:18:46;;;;;;;;;;;;;;;-14.12;73.32;99303.47;4996000;28;20332;-78
2021/12/27 07:21:11;;;;;;;;;;;;;;;-14.16;73.01;99314.78;5014153;28;19918;-77
2021/12/27 07:23:37;;;;;;;;;;;;;;;-14.24;73.06;99317.41;5012625;28;20007;-76
2021/12/27 07:26:02;;;;;;;;;;;;;;;-14.30;73.77;99327.69;5028439;28;19913;-78
2021/12/27 07:28:28;;;;;;;;;;;;;;;-14.29;73.23;99321.97;5013329;28;19917;-78
2021/12/27 07:30:53;;;;;;;;;;;;;;;-14.22;73.98;99328.34;4996377;28;19917;-79
2021/12/27 07:33:19;;;;;;;;;;;;;;;-14.22;73.88;99333.34;5013720;28;20447;-79
2021/12/27 07:35:44;;;;;;;;;;;;;;;-14.19;74.16;99341.09;5013380;28;19921;-78
2021/12/27 07:38:10;;;;;;;;;;;;;;;-14.19;73.66;99343.59;5013248;28;19919;-79
2021/12/27 07:40:35;;;;;;;;;;;;;;;-14.12;72.99;99340.88;4995977;28;19975;-77
2021/12/27 07:43:01;;;;;;;;;;;;;;;-14.04;72.86;99344.03;4995993;28;20331;-80
2021/12/27 07:45:27;;;;;;;;;;;;;;;-13.94;72.67;99342.44;4995658;28;19990;-77
2021/12/27 07:47:53;;;;;;;;;;;;;;;-13.95;72.79;99360.66;5013039;28;20020;-78
2021/12/27 07:50:19;;;;;;;;;;;;;;;-13.84;72.65;99359.06;5011807;28;19917;-78
2021/12/27 07:52:45;;;;;;;;;;;;;;;-13.78;72.26;99353.75;5013099;28;20277;-78
2021/12/27 07:55:10;;;;;;;;;;;;;;;-13.75;71.97;99358.97;5012000;28;19963;-77
2021/12/27 07:57:36;;;;;;;;;;;;;;;-13.75;72.11;99354.00;5013489;28;19921;-77
2021/12/27 08:00:03;;;;;;;;;;;;;;;-13.66;71.88;99355.66;4995810;28;19913;-77
2021/12/27 08:02:29;;;;;;;;;;;;;;;-13.64;71.91;99353.31;5013032;28;19918;-78
2021/12/27 08:04:55;;;;;;;;;;;;;;;-13.55;71.82;99354.09;5013274;28;20004;-77
2021/12/27 08:07:21;;;;;;;;;;;;;;;-13.53;71.86;99372.53;5011834;28;19921;-77
2021/12/27 08:09:46;;;;;;;;;;;;;;;-13.51;71.56;99371.06;5013139;28;19917;-78
2021/12/27 08:12:14;;;;;;;;;;;;;;;-13.44;71.68;99372.44;5012418;28;19976;-76
2021/12/27 08:14:39;;;;;;;;;;;;;;;-13.47;71.51;99367.19;4995617;28;19913;-77
2021/12/27 08:17:05;;;;;;;;;;;;;;;-13.46;71.80;99363.97;5012011;28;19924;-78
2021/12/27 08:19:30;;;;;;;;;;;;;;;-13.37;71.45;99365.59;4995882;28;20008;-78
2021/12/27 08:21:56;;;;;;;;;;;;;;;-13.25;71.51;99369.88;5017334;28;19921;-77
2021/12/27 08:24:21;;;;;;;;;;;;;;;-13.13;71.43;99375.84;5017004;28;19976;-77
2021/12/27 08:26:47;;;;;;;;;;;;;;;-13.10;70.85;99367.00;5015353;28;19921;-77
2021/12/27 08:29:12;;;;;;;;;;;;;;;-12.99;71.42;99365.38;5015538;28;19961;-78
2021/12/27 08:31:38;;;;;;;;;;;;;;;-12.96;70.96;99360.66;5015534;28;19944;-78
2021/12/27 08:34:03;;;;;;;;;;;;;;;-12.79;71.59;99362.03;4999021;28;19917;-77
2021/12/27 08:36:29;;;;;;;;;;;;;;;-12.66;70.98;99359.78;4999138;28;19999;-78
2021/12/27 08:38:54;;;;;;;;;;;;;;;-12.56;70.72;99353.91;5015332;28;20019;-77
2021/12/27 08:41:20;;;;;;;;;;;;;;;-12.51;69.46;99359.25;4998964;28;19917;-78
2021/12/27 08:43:46;;;;;;;;;;;;;;;-12.40;71.08;99356.91;5015484;28;19921;-77
2021/12/27 08:46:12;;;;;;;;;;;;;;;-12.26;69.58;99357.13;4998906;28;20411;-78
2021/12/27 08:48:37;;;;;;;;;;;;;;;-12.26;70.47;99352.13;5015172;28;19914;-77
2021/12/27 08:51:03;;;;;;;;;;;;;;;-12.18;69.94;99346.13;4998403;28;19921;-78
2021/12/27 08:53:29;;;;;;;;;;;;;;;-12.05;70.83;99339.72;5015693;28;19913;-78
2021/12/27 08:55:55;;;;;;;;;;;;;;;-12.02;69.65;99334.06;5015169;28;20403;-77
2021/12/27 08:58:20;;;;;;;;;;;;;;;-12.02;70.21;99339.06;5016599;28;20022;-78
2021/12/27 09:00:46;;;;;;;;;;;;;;;-11.98;70.15;99336.03;4999202;28;19921;-78
2021/12/27 09:03:11;;;;;;;;;;;;;;;-11.98;70.19;99351.06;4998949;28;19913;-77
2021/12/27 09:05:38;;;;;;;;;;;;;;;-11.94;71.24;99337.16;5015065;28;20091;-78
2021/12/27 09:08:03;;;;;;;;;;;;;;;-11.93;70.68;99338.91;4998740;28;19940;-78
2021/12/27 09:10:29;;;;;;;;;;;;;;;-11.85;70.19;99341.25;5014902;28;19921;-78
2021/12/27 09:12:54;;;;;;;;;;;;;;;-11.81;70.41;99338.22;4998652;28;19984;-79
2021/12/27 09:15:20;;;;;;;;;;;;;;;-11.80;70.00;99339.94;5014769;28;19980;-77
2021/12/27 09:17:45;;;;;;;;;;;;;;;-11.78;69.13;99350.94;5014633;28;19918;-77
2021/12/27 09:20:11;;;;;;;;;;;;;;;-11.86;69.42;99349.53;5014519;28;19949;-79
2021/12/27 09:22:36;;;;;;;;;;;;;;;-11.88;69.65;99351.00;5016080;28;19917;-78
2021/12/27 09:25:02;;;;;;;;;;;;;;;-11.91;70.08;99349.88;5016018;28;20011;-77
2021/12/27 09:27:28;;;;;;;;;;;;;;;-11.94;70.36;99347.16;4998059;28;20380;-78
2021/12/27 09:29:53;;;;;;;;;;;;;;;-11.89;70.07;99348.41;5014675;28;19928;-78
2021/12/27 09:32:19;;;;;;;;;;;;;;;-11.98;70.86;99346.03;4996922;28;20448;-79
2021/12/27 09:34:44;;;;;;;;;;;;;;;-11.98;70.50;99363.56;5015594;28;19917;-78
2021/12/27 09:37:10;;;;;;;;;;;;;;;-11.98;70.98;99342.69;4997901;28;19913;-76
2021/12/27 09:39:35;;;;;;;;;;;;;;;-11.89;71.03;99346.78;5015101;28;20338;-79
2021/12/27 09:42:01;;;;;;;;;;;;;;;-11.86;69.82;99343.66;4997749;28;20419;-77
2021/12/27 09:44:26;;;;;;;;;;;;;;;-11.85;71.03;99331.25;4998050;28;20413;-78
2021/12/27 09:46:52;;;;;;;;;;;;;;;-11.82;70.86;99338.97;4997575;28;19913;-79
2021/12/27 09:49:17;;;;;;;;;;;;;;;-11.81;71.90;99333.22;5015238;28;19921;-78
2021/12/27 09:51:43;;;;;;;;;;;;;;;-11.70;70.61;99340.66;5013970;28;20295;-79
2021/12/27 09:54:09;;;;;;;;;;;;;;;-11.56;72.13;99340.09;5014051;28;20331;-78
2021/12/27 09:56:34;;;;;;;;;;;;;;;-11.57;69.97;99348.38;5015349;28;19993;-80
2021/12/27 09:59:00;;;;;;;;;;;;;;;-11.63;71.75;99340.41;5015231;28;20020;-78
2021/12/27 10:01:25;;;;;;;;;;;;;;;-11.64;70.27;99336.13;5014114;28;20367;-79
2021/12/27 10:03:51;;;;;;;;;;;;;;;-11.56;70.99;99340.09;5013965;28;20322;-78
2021/12/27 10:06:17;;;;;;;;;;;;;;;-11.49;71.46;99344.81;5014038;28;19914;-77
2021/12/27 10:08:43;;;;;;;;;;;;;;;-11.39;71.65;99344.75;5014317;28;19921;-79
2021/12/27 10:11:14;;;;;;;;;;;;;;;-11.28;71.42;99333.91;5013990;28;19939;-79
2021/12/27 10:13:40;;;;;;;;;;;;;;;-11.23;70.52;99349.28;5013726;28;20299;-78
2021/12/27 10:16:12;;;;;;;;;;;;;;;-11.15;72.11;99337.38;4997269;28;19924;-78
2021/12/27 10:18:38;;;;;;;;;;;;;;;-11.06;71.09;99333.91;4997178;28;20391;-78
2021/12/27 10:21:03;;;;;;;;;;;;;;;-10.99;70.53;99327.75;5015068;28;19925;-78
2021/12/27 10:23:29;;;;;;;;;;;;;;;-10.91;71.75;99339.19;5014725;28;19917;-79
2021/12/27 10:25:56;;;;;;;;;;;;;;;-10.87;70.72;99323.63;5013423;28;20004;-80
2021/12/27 10:28:25;;;;;;;;;;;;;;;-10.84;71.35;99335.53;4997193;28;19925;-77
2021/12/27 10:30:51;;;;;;;;;;;;;;;-10.79;70.95;99336.72;5013239;28;19917;-77
2021/12/27 10:33:24;;;;;;;;;;;;;;;-10.69;71.17;99333.25;5014430;28;19924;-79
2021/12/27 10:35:51;;;;;;;;;;;;;;;-10.65;70.96;99330.22;5013091;28;19924;-78
2021/12/27 10:38:26;;;;;;;;;;;;;;;-10.59;70.55;99345.69;4981321;28;19924;-79
2021/12/27 10:40:55;;;;;;;;;;;;;;;-10.54;70.53;99342.75;5013129;28;20423;-79
2021/12/27 10:43:34;;;;;;;;;;;;;;;-10.10;70.17;99359.25;5014535;28;19917;-79
2021/12/27 10:46:02;;;;;;;;;;;;;;;-9.60;68.26;99351.94;5013134;28;19944;-81
2021/12/27 10:48:31;;;;;;;;;;;;;;;-9.47;66.29;99349.50;4996938;28;19918;-78
2021/12/27 10:50:57;;;;;;;;;;;;;;;-9.39;67.05;99350.00;5012915;28;19976;-79
2021/12/27 10:53:23;;;;;;;;;;;;;;;-9.59;66.45;99353.66;5012849;28;20024;-84
2021/12/27 10:55:48;;;;;;;;;;;;;;;-9.63;67.04;99364.25;5013422;28;19949;-78
2021/12/27 10:58:22;;;;;;;;;;;;;;;-9.70;67.40;99362.97;4996599;28;19913;-78
2021/12/27 11:00:49;;;;;;;;;;;;;;;-9.79;67.71;99348.13;4996462;28;20388;-77
2021/12/27 11:03:22;;;;;;;;;;;;;;;-9.73;68.06;99342.66;4996736;28;19913;-79
2021/12/27 11:05:47;;;;;;;;;;;;;;;-9.84;67.84;99356.97;5014055;28;19921;-79
2021/12/27 11:08:13;;;;;;;;;;;;;;;-9.80;67.76;99351.41;4996654;28;19989;-78
2021/12/27 11:10:38;;;;;;;;;;;;;;;-9.80;67.96;99345.53;5013949;28;20339;-81
2021/12/27 11:13:04;;;;;;;;;;;;;;;-9.95;68.34;99355.31;4996247;28;19913;-79
2021/12/27 11:15:30;;;;;;;;;;;;;;;-9.97;69.01;99341.81;5014092;28;19924;-81
2021/12/27 11:17:56;;;;;;;;;;;;;;;-10.06;68.50;99343.66;4996562;28;19917;-78
2021/12/27 11:20:21;;;;;;;;;;;;;;;-10.02;69.09;99343.13;5012718;28;20276;-78
2021/12/27 11:22:47;;;;;;;;;;;;;;;-10.09;69.34;99361.88;5012829;28;20304;-79
2021/12/27 11:25:20;;;;;;;;;;;;;;;-10.05;69.65;99350.44;5012863;28;19917;-78
2021/12/27 11:27:46;;;;;;;;;;;;;;;-10.11;69.70;99353.38;5012711;28;19925;-78
2021/12/27 11:30:12;;;;;;;;;;;;;;;-10.14;69.88;99359.81;5013506;28;19917;-78
2021/12/27 11:32:56;;;;;;;;;;;;;;;-10.12;70.19;99346.63;5012466;28;19917;-78
2021/12/27 11:35:22;;;;;;;;;;;;;;;-10.10;70.71;99354.25;5014419;28;19917;-79
2021/12/27 11:37:48;;;;;;;;;;;;;;;-10.19;70.20;99348.56;5013884;28;19914;-78
2021/12/27 11:40:14;;;;;;;;;;;;;;;-10.18;70.83;99355.31;4996294;28;19944;-79
2021/12/27 11:42:52;;;;;;;;;;;;;;;-10.20;70.57;99364.38;5013471;28;20388;-78
2021/12/27 11:45:36;;;;;;;;;;;;;;;-10.14;71.06;99364.81;4995932;28;20039;-78
2021/12/27 11:48:15;;;;;;;;;;;;;;;-10.16;71.47;99374.75;5013173;28;19917;-79
2021/12/27 11:50:56;;;;;;;;;;;;;;;-10.11;70.88;99367.56;5013242;28;19921;-77
2021/12/27 11:53:26;;;;;;;;;;;;;;;-10.15;70.72;99370.59;5013399;28;19921;-80
2021/12/27 11:55:52;;;;;;;;;;;;;;;-10.04;71.47;99374.75;5015923;28;19917;-80
2021/12/27 11:58:37;;;;;;;;;;;;;;;-10.05;71.41;99373.00;5017289;28;19914;-81
2021/12/27 12:01:03;;;;;;;;;;;;;;;-9.99;71.32;99374.34;5016033;28;19924;-79
2021/12/27 12:03:41;;;;;;;;;;;;;;;-9.99;71.27;99385.97;5017582;28;19940;-78
2021/12/27 12:06:07;;;;;;;;;;;;;;;-9.98;70.94;99381.09;4999402;28;19917;-78
2021/12/27 12:08:38;;;;;;;;;;;;;;;-10.01;71.13;99385.88;5016007;28;20438;-78
2021/12/27 12:11:06;;;;;;;;;;;;;;;-10.03;71.39;99386.56;5017164;28;20331;-79
2021/12/27 12:13:39;;;;;;;;;;;;;;;-10.06;71.61;99384.69;5015893;28;20469;-78
2021/12/27 12:16:07;;;;;;;;;;;;;;;-10.03;71.73;99389.06;5016958;28;19984;-79
2021/12/27 12:18:32;;;;;;;;;;;;;;;-10.00;71.12;99382.59;5015989;28;20384;-78
2021/12/27 12:20:58;;;;;;;;;;;;;;;-9.99;70.86;99391.00;5016145;28;19921;-78
2021/12/27 12:23:24;;;;;;;;;;;;;;;-10.05;71.46;99388.06;4999609;28;19948;-77
2021/12/27 12:25:56;;;;;;;;;;;;;;;-9.92;71.19;99389.81;5016687;28;20376;-79
2021/12/27 12:28:21;;;;;;;;;;;;;;;-9.84;71.86;99377.06;5015690;28;20354;-79
2021/12/27 12:30:48;;;;;;;;;;;;;;;-9.80;71.27;99360.59;5015430;28;19921;-79
2021/12/27 12:33:14;;;;;;;;;;;;;;;-9.72;71.17;99365.34;5015704;28;19924;-78
2021/12/27 12:35:44;;;;;;;;;;;;;;;-9.78;70.62;99359.03;5015768;28;20008;-78